Terminal Aerodrome Forecast
Issued by NWS

Home | Current Version | Previous Version | Text Only | Print | Product List | Glossary On
Versions: 1 2 3 4 5 6 7 8 9 10 11 12 13 14 15 16 17 18 19 20 21
000
FTUS46 KSEW 301459 AAA
TAFSEA
TAF AMD
KSEA 301459Z 3015/3118 20008KT P6SM FEW013 BKN060
      TEMPO 3015/3017 BKN013 BKN060
     FM301900 22010KT P6SM SCT070
     FM310500 19008KT P6SM BKN050
     FM311000 19008KT P6SM OVC015=

USA.gov is the U.S. government's official web portal to all federal, state and local government web resources and services.